Time,TemperatureF,DewpointF,PressureIn,WindDirection,WindDirectionDegrees,WindSpeedMPH,WindSpeedGustMPH,Humidity,HourlyPrecipIn,Conditions,Clouds,dailyrainin,SoftwareType,DateUTC
2013-02-06 00:00:00,34.0,31.6,29.92,NNW,327,0.0,2.0,91,0.00,,,0.01,Wunderground v.1.13,2013-02-06 05:00:00,
2013-02-06 00:05:00,33.8,31.5,29.92,NNW,327,0.0,3.0,91,0.00,,,0.01,Wunderground v.1.13,2013-02-06 05:05:00,
2013-02-06 00:10:00,33.8,31.5,29.92,NNW,327,1.0,3.0,91,0.00,,,0.01,Wunderground v.1.13,2013-02-06 05:10:00,
2013-02-06 00:15:00,33.8,31.5,29.92,NNW,327,1.0,3.0,91,0.00,,,0.01,Wunderground v.1.13,2013-02-06 05:15:00,
2013-02-06 00:25:00,33.5,31.2,29.92,WNW,302,1.0,5.0,91,0.00,,,0.01,Wunderground v.1.13,2013-02-06 05:25:00,
2013-02-06 00:30:00,33.5,30.9,29.92,NW,312,2.0,3.0,90,0.00,,,0.01,Wunderground v.1.13,2013-02-06 05:30:00,
2013-02-06 00:40:00,33.4,30.8,29.92,NW,316,1.0,5.0,90,0.00,,,0.01,Wunderground v.1.13,2013-02-06 05:40:00,
2013-02-06 00:50:00,33.2,30.6,29.92,WNW,299,1.0,1.0,90,0.00,,,0.01,Wunderground v.1.13,2013-02-06 05:50:00,
2013-02-06 01:00:00,33.1,30.5,29.92,WNW,300,1.0,5.0,90,0.00,,,0.01,Wunderground v.1.13,2013-02-06 06:00:00,
2013-02-06 01:05:00,33.1,30.5,29.92,WNW,293,2.0,4.0,90,0.00,,,0.01,Wunderground v.1.13,2013-02-06 06:05:00,
2013-02-06 01:10:00,33.1,30.5,29.91,WNW,293,1.0,1.0,90,0.00,,,0.01,Wunderground v.1.13,2013-02-06 06:10:00,
2013-02-06 01:20:00,32.8,30.2,29.92,WNW,302,1.0,1.0,90,0.00,,,0.01,Wunderground v.1.13,2013-02-06 06:20:00,
2013-02-06 01:25:00,32.8,30.2,29.92,WNW,302,0.0,6.0,90,0.00,,,0.01,Wunderground v.1.13,2013-02-06 06:25:00,
2013-02-06 01:35:00,32.8,30.2,29.92,NNW,333,1.0,1.0,90,0.00,,,0.01,Wunderground v.1.13,2013-02-06 06:35:00,
2013-02-06 01:40:00,32.8,30.2,29.92,NNW,333,1.0,4.0,90,0.00,,,0.01,Wunderground v.1.13,2013-02-06 06:40:00,
2013-02-06 01:50:00,32.8,30.2,29.93,NW,304,2.0,6.0,90,0.00,,,0.01,Wunderground v.1.13,2013-02-06 06:50:00,
2013-02-06 01:55:00,32.7,30.1,29.93,NW,321,2.0,2.0,90,0.00,,,0.01,Wunderground v.1.13,2013-02-06 06:55:00,
2013-02-06 02:05:00,32.5,29.9,29.93,NNW,327,1.0,1.0,90,0.00,,,0.01,Wunderground v.1.13,2013-02-06 07:05:00,
2013-02-06 02:10:00,32.5,29.9,29.94,NW,319,1.0,1.0,90,0.00,,,0.01,Wunderground v.1.13,2013-02-06 07:10:00,
2013-02-06 02:20:00,32.5,29.6,29.95,West,275,3.0,3.0,89,0.00,,,0.01,Wunderground v.1.13,2013-02-06 07:20:00,
2013-02-06 02:25:00,32.5,29.6,29.94,West,275,2.0,5.0,89,0.00,,,0.01,Wunderground v.1.13,2013-02-06 07:25:00,
2013-02-06 02:35:00,32.5,29.6,29.94,West,275,1.0,5.0,89,0.00,,,0.01,Wunderground v.1.13,2013-02-06 07:35:00,
2013-02-06 02:40:00,32.4,29.5,29.93,West,275,1.0,5.0,89,0.00,,,0.01,Wunderground v.1.13,2013-02-06 07:40:00,
2013-02-06 02:50:00,32.4,29.5,29.94,WNW,299,2.0,6.0,89,0.00,,,0.01,Wunderground v.1.13,2013-02-06 07:50:00,
2013-02-06 02:55:00,32.4,29.5,29.94,WNW,299,2.0,6.0,89,0.00,,,0.01,Wunderground v.1.13,2013-02-06 07:55:00,
2013-02-06 03:05:00,32.2,29.3,29.93,NW,304,1.0,1.0,89,0.00,,,0.01,Wunderground v.1.13,2013-02-06 08:05:00,
2013-02-06 03:15:00,32.1,29.2,29.94,NW,304,1.0,5.0,89,0.00,,,0.01,Wunderground v.1.13,2013-02-06 08:15:00,
2013-02-06 03:20:00,31.9,29.0,29.94,NW,304,1.0,4.0,89,0.00,,,0.01,Wunderground v.1.13,2013-02-06 08:20:00,
2013-02-06 03:30:00,31.9,29.3,29.95,NW,304,1.0,4.0,90,0.00,,,0.01,Wunderground v.1.13,2013-02-06 08:30:00,
2013-02-06 03:40:00,32.1,29.5,29.95,NW,304,2.0,2.0,90,0.00,,,0.01,Wunderground v.1.13,2013-02-06 08:40:00,
2013-02-06 03:45:00,32.1,29.5,29.95,NW,304,1.0,1.0,90,0.00,,,0.01,Wunderground v.1.13,2013-02-06 08:45:00,
2013-02-06 03:55:00,32.1,29.5,29.95,NW,304,1.0,4.0,90,0.00,,,0.01,Wunderground v.1.13,2013-02-06 08:55:00,
2013-02-06 04:00:00,32.1,29.5,29.95,NW,304,0.0,4.0,90,0.00,,,0.01,Wunderground v.1.13,2013-02-06 09:00:00,
2013-02-06 04:10:00,32.1,29.5,29.95,NW,304,0.0,3.0,90,0.00,,,0.01,Wunderground v.1.13,2013-02-06 09:10:00,
2013-02-06 04:20:00,32.1,29.5,29.96,NW,304,0.0,2.0,90,0.00,,,0.01,Wunderground v.1.13,2013-02-06 09:20:00,
2013-02-06 04:30:00,32.2,29.6,29.97,West,278,2.0,4.0,90,0.00,,,0.01,Wunderground v.1.13,2013-02-06 09:30:00,
2013-02-06 04:35:00,32.2,29.6,29.97,WNW,297,2.0,7.0,90,0.00,,,0.01,Wunderground v.1.13,2013-02-06 09:35:00,
2013-02-06 04:40:00,32.2,29.6,29.97,SW,231,2.0,7.0,90,0.00,,,0.01,Wunderground v.1.13,2013-02-06 09:40:00,
2013-02-06 04:50:00,32.2,29.3,29.97,WNW,295,3.0,6.0,89,0.00,,,0.01,Wunderground v.1.13,2013-02-06 09:50:00,
2013-02-06 04:55:00,32.2,29.3,29.98,NW,317,3.0,3.0,89,0.00,,,0.01,Wunderground v.1.13,2013-02-06 09:55:00,
2013-02-06 05:05:00,32.2,29.0,29.98,WNW,289,3.0,3.0,88,0.00,,,0.01,Wunderground v.1.13,2013-02-06 10:05:00,
2013-02-06 05:10:00,32.2,29.0,29.98,WNW,296,2.0,9.0,88,0.00,,,0.01,Wunderground v.1.13,2013-02-06 10:10:00,
2013-02-06 05:20:00,32.1,28.9,29.98,WNW,296,2.0,2.0,88,0.00,,,0.01,Wunderground v.1.13,2013-02-06 10:20:00,
2013-02-06 05:25:00,31.9,28.8,29.99,WNW,296,0.0,6.0,88,0.00,,,0.01,Wunderground v.1.13,2013-02-06 10:25:00,
2013-02-06 05:35:00,31.8,28.7,29.99,WNW,296,1.0,1.0,88,0.00,,,0.01,Wunderground v.1.13,2013-02-06 10:35:00,
2013-02-06 05:40:00,31.6,28.5,29.99,WNW,296,0.0,4.0,88,0.00,,,0.01,Wunderground v.1.13,2013-02-06 10:40:00,
2013-02-06 05:50:00,31.3,28.2,30.00,WNW,296,0.0,2.0,88,0.00,,,0.01,Wunderground v.1.13,2013-02-06 10:50:00,
2013-02-06 06:00:00,30.9,27.8,30.00,WNW,296,0.0,2.0,88,0.00,,,0.01,Wunderground v.1.13,2013-02-06 11:00:00,
2013-02-06 06:05:00,30.7,27.6,30.00,WNW,296,0.0,1.0,88,0.00,,,0.01,Wunderground v.1.13,2013-02-06 11:05:00,
2013-02-06 06:10:00,30.7,27.8,30.00,WNW,296,1.0,1.0,89,0.00,,,0.01,Wunderground v.1.13,2013-02-06 11:10:00,
2013-02-06 06:20:00,30.6,27.7,30.02,WNW,296,1.0,2.0,89,0.00,,,0.01,Wunderground v.1.13,2013-02-06 11:20:00,
2013-02-06 06:25:00,30.6,27.7,30.02,WNW,296,1.0,2.0,89,0.00,,,0.01,Wunderground v.1.13,2013-02-06 11:25:00,
2013-02-06 06:35:00,30.4,27.5,30.03,NW,307,2.0,2.0,89,0.00,,,0.01,Wunderground v.1.13,2013-02-06 11:35:00,
2013-02-06 06:40:00,30.3,27.4,30.04,WNW,283,2.0,2.0,89,0.00,,,0.01,Wunderground v.1.13,2013-02-06 11:40:00,
2013-02-06 06:45:00,30.3,27.4,30.04,SW,229,2.0,5.0,89,0.00,,,0.01,Wunderground v.1.13,2013-02-06 11:45:00,
2013-02-06 06:55:00,30.3,27.7,30.04,SW,236,1.0,5.0,90,0.00,,,0.01,Wunderground v.1.13,2013-02-06 11:55:00,
2013-02-06 07:05:00,30.3,27.7,30.05,WSW,242,2.0,2.0,90,0.00,,,0.01,Wunderground v.1.13,2013-02-06 12:05:00,
2013-02-06 07:10:00,30.1,27.5,30.05,WSW,242,1.0,4.0,90,0.00,,,0.01,Wunderground v.1.13,2013-02-06 12:10:00,
2013-02-06 07:15:00,30.1,27.5,30.05,WSW,242,1.0,1.0,90,0.00,,,0.01,Wunderground v.1.13,2013-02-06 12:15:00,
2013-02-06 07:25:00,30.1,27.5,30.06,WSW,242,1.0,3.0,90,0.00,,,0.01,Wunderground v.1.13,2013-02-06 12:25:00,
2013-02-06 07:30:00,30.1,27.5,30.06,WSW,242,0.0,3.0,90,0.00,,,0.01,Wunderground v.1.13,2013-02-06 12:30:00,
2013-02-06 07:40:00,30.3,27.7,30.06,WSW,238,1.0,3.0,90,0.00,,,0.01,Wunderground v.1.13,2013-02-06 12:40:00,
2013-02-06 07:45:00,30.4,27.8,30.06,SW,233,2.0,3.0,90,0.00,,,0.01,Wunderground v.1.13,2013-02-06 12:45:00,
2013-02-06 07:50:00,30.4,27.8,30.06,WNW,292,2.0,6.0,90,0.00,,,0.01,Wunderground v.1.13,2013-02-06 12:50:00,
2013-02-06 08:00:00,30.6,27.7,30.07,WSW,239,2.0,2.0,89,0.00,,,0.01,Wunderground v.1.13,2013-02-06 13:00:00,
2013-02-06 08:05:00,30.7,27.8,30.07,WSW,239,2.0,6.0,89,0.00,,,0.01,Wunderground v.1.13,2013-02-06 13:05:00,
2013-02-06 08:15:00,31.0,27.9,30.08,West,281,3.0,3.0,88,0.00,,,0.01,Wunderground v.1.13,2013-02-06 13:15:00,
2013-02-06 08:20:00,31.2,27.8,30.08,West,273,3.0,6.0,87,0.00,,,0.01,Wunderground v.1.13,2013-02-06 13:20:00,
2013-02-06 08:30:00,31.6,27.6,30.09,NW,310,3.0,6.0,85,0.00,,,0.01,Wunderground v.1.13,2013-02-06 13:30:00,
2013-02-06 08:40:00,32.1,27.2,30.09,WNW,294,4.0,4.0,82,0.00,,,0.01,Wunderground v.1.13,2013-02-06 13:40:00,
2013-02-06 08:50:00,32.7,26.3,30.10,WNW,292,5.0,5.0,77,0.00,,,0.01,Wunderground v.1.13,2013-02-06 13:50:00,
2013-02-06 08:55:00,32.8,25.7,30.09,West,272,6.0,12.0,75,0.00,,,0.01,Wunderground v.1.13,2013-02-06 13:55:00,
2013-02-06 09:00:00,33.1,25.4,30.10,WNW,298,6.0,6.0,73,0.00,,,0.01,Wunderground v.1.13,2013-02-06 14:00:00,
2013-02-06 09:10:00,33.4,25.0,30.10,West,265,5.0,5.0,71,0.00,,,0.01,Wunderground v.1.13,2013-02-06 14:10:00,
2013-02-06 09:20:00,33.7,24.6,30.10,West,265,5.0,5.0,69,0.00,,,0.01,Wunderground v.1.13,2013-02-06 14:20:00,
2013-02-06 09:30:00,34.1,23.9,30.10,North,355,7.0,7.0,66,0.00,,,0.01,Wunderground v.1.13,2013-02-06 14:30:00,
2013-02-06 09:35:00,34.4,23.8,30.10,WNW,293,7.0,7.0,65,0.00,,,0.01,Wunderground v.1.13,2013-02-06 14:35:00,
2013-02-06 09:40:00,34.9,23.6,30.11,West,271,8.0,13.0,63,0.00,,,0.01,Wunderground v.1.13,2013-02-06 14:40:00,
2013-02-06 09:50:00,35.2,23.5,30.11,WNW,296,6.0,17.0,62,0.00,,,0.01,Wunderground v.1.13,2013-02-06 14:50:00,
2013-02-06 09:55:00,35.3,23.6,30.11,NW,304,7.0,7.0,62,0.00,,,0.01,Wunderground v.1.13,2013-02-06 14:55:00,
2013-02-06 10:05:00,35.8,23.3,30.12,West,273,7.0,7.0,60,0.00,,,0.01,Wunderground v.1.13,2013-02-06 15:05:00,
2013-02-06 10:10:00,35.9,23.0,30.12,WNW,286,8.0,16.0,59,0.00,,,0.01,Wunderground v.1.13,2013-02-06 15:10:00,
2013-02-06 10:20:00,36.0,22.6,30.12,WNW,282,9.0,9.0,58,0.00,,,0.01,Wunderground v.1.13,2013-02-06 15:20:00,
2013-02-06 10:25:00,36.3,22.9,30.12,West,264,8.0,16.0,58,0.00,,,0.01,Wunderground v.1.13,2013-02-06 15:25:00,
2013-02-06 10:35:00,36.6,23.2,30.13,WNW,283,7.0,17.0,58,0.00,,,0.01,Wunderground v.1.13,2013-02-06 15:35:00,
2013-02-06 10:40:00,36.6,22.8,30.13,NNW,341,7.0,17.0,57,0.00,,,0.01,Wunderground v.1.13,2013-02-06 15:40:00,
2013-02-06 10:50:00,36.6,22.8,30.13,WNW,302,10.0,10.0,57,0.00,,,0.01,Wunderground v.1.13,2013-02-06 15:50:00,
2013-02-06 10:55:00,36.8,22.6,30.13,West,280,8.0,8.0,56,0.00,,,0.01,Wunderground v.1.13,2013-02-06 15:55:00,
2013-02-06 11:05:00,37.2,22.9,30.13,NW,308,6.0,6.0,56,0.00,,,0.01,Wunderground v.1.13,2013-02-06 16:05:00,
2013-02-06 11:15:00,37.5,22.3,30.13,West,263,7.0,7.0,54,0.00,,,0.01,Wunderground v.1.13,2013-02-06 16:15:00,
2013-02-06 11:20:00,37.3,22.2,30.13,WNW,296,8.0,8.0,54,0.00,,,0.01,Wunderground v.1.13,2013-02-06 16:20:00,
2013-02-06 11:30:00,38.0,21.5,30.12,NNW,332,8.0,8.0,51,0.00,,,0.01,Wunderground v.1.13,2013-02-06 16:30:00,
2013-02-06 11:35:00,38.2,22.1,30.12,WNW,298,8.0,17.0,52,0.00,,,0.01,Wunderground v.1.13,2013-02-06 16:35:00,
2013-02-06 11:45:00,38.2,21.2,30.12,NW,304,7.0,17.0,50,0.00,,,0.01,Wunderground v.1.13,2013-02-06 16:45:00,
2013-02-06 11:55:00,38.6,22.0,30.12,WSW,257,7.0,16.0,51,0.00,,,0.01,Wunderground v.1.13,2013-02-06 16:55:00,
2013-02-06 12:05:00,38.6,20.6,30.12,NW,308,8.0,17.0,48,0.00,,,0.01,Wunderground v.1.13,2013-02-06 17:05:00,
2013-02-06 12:10:00,38.8,21.3,30.12,WSW,252,8.0,8.0,49,0.00,,,0.01,Wunderground v.1.13,2013-02-06 17:10:00,
2013-02-06 12:20:00,39.2,20.6,30.12,ENE,57,7.0,7.0,47,0.00,,,0.01,Wunderground v.1.13,2013-02-06 17:20:00,
2013-02-06 12:25:00,39.5,21.4,30.12,WNW,289,7.0,7.0,48,0.00,,,0.01,Wunderground v.1.13,2013-02-06 17:25:00,
2013-02-06 12:30:00,40.1,20.4,30.12,NW,326,6.0,18.0,45,0.00,,,0.01,Wunderground v.1.13,2013-02-06 17:30:00,
2013-02-06 12:40:00,39.1,19.0,30.13,WNW,301,9.0,17.0,44,0.00,,,0.01,Wunderground v.1.13,2013-02-06 17:40:00,
2013-02-06 12:50:00,38.8,18.7,30.12,NW,321,10.0,18.0,44,0.00,,,0.01,Wunderground v.1.13,2013-02-06 17:50:00,
2013-02-06 12:55:00,38.6,18.5,30.13,NW,325,10.0,17.0,44,0.00,,,0.01,Wunderground v.1.13,2013-02-06 17:55:00,
2013-02-06 13:05:00,38.3,18.3,30.13,West,265,9.0,21.0,44,0.00,,,0.01,Wunderground v.1.13,2013-02-06 18:05:00,
2013-02-06 13:10:00,38.3,19.3,30.12,NNW,333,8.0,21.0,46,0.00,,,0.01,Wunderground v.1.13,2013-02-06 18:10:00,
2013-02-06 13:20:00,38.2,19.2,30.12,WNW,284,7.0,7.0,46,0.00,,,0.01,Wunderground v.1.13,2013-02-06 18:20:00,
2013-02-06 13:30:00,38.9,19.9,30.12,NNW,331,8.0,20.0,46,0.00,,,0.01,Wunderground v.1.13,2013-02-06 18:30:00,
2013-02-06 13:35:00,39.2,20.1,30.13,WNW,296,7.0,7.0,46,0.00,,,0.01,Wunderground v.1.13,2013-02-06 18:35:00,
2013-02-06 13:45:00,38.9,19.3,30.13,NW,305,8.0,17.0,45,0.00,,,0.01,Wunderground v.1.13,2013-02-06 18:45:00,
2013-02-06 13:55:00,38.8,20.3,30.12,WSW,244,9.0,9.0,47,0.00,,,0.01,Wunderground v.1.13,2013-02-06 18:55:00,
2013-02-06 14:00:00,38.8,19.8,30.13,West,281,7.0,16.0,46,0.00,,,0.01,Wunderground v.1.13,2013-02-06 19:00:00,
2013-02-06 14:10:00,38.2,19.2,30.13,WNW,301,8.0,8.0,46,0.00,,,0.01,Wunderground v.1.13,2013-02-06 19:10:00,
2013-02-06 14:15:00,38.2,18.7,30.14,West,267,8.0,19.0,45,0.00,,,0.01,Wunderground v.1.13,2013-02-06 19:15:00,
2013-02-06 14:25:00,39.1,19.0,30.14,NNW,329,10.0,10.0,44,0.00,,,0.01,Wunderground v.1.13,2013-02-06 19:25:00,
2013-02-06 14:30:00,39.3,19.7,30.14,WNW,289,9.0,17.0,45,0.00,,,0.01,Wunderground v.1.13,2013-02-06 19:30:00,
2013-02-06 14:40:00,39.6,20.0,30.14,NW,309,9.0,21.0,45,0.00,,,0.01,Wunderground v.1.13,2013-02-06 19:40:00,
2013-02-06 14:50:00,39.5,20.9,30.15,NW,309,8.0,8.0,47,0.00,,,0.01,Wunderground v.1.13,2013-02-06 19:50:00,
2013-02-06 15:00:00,39.8,20.2,30.15,WSW,247,6.0,6.0,45,0.00,,,0.01,Wunderground v.1.13,2013-02-06 20:00:00,
2013-02-06 15:05:00,39.5,20.4,30.15,WNW,284,6.0,16.0,46,0.00,,,0.01,Wunderground v.1.13,2013-02-06 20:05:00,
2013-02-06 15:10:00,39.5,20.4,30.15,WNW,293,7.0,7.0,46,0.00,,,0.01,Wunderground v.1.13,2013-02-06 20:10:00,
2013-02-06 15:20:00,40.2,20.5,30.15,SW,236,6.0,6.0,45,0.00,,,0.01,Wunderground v.1.13,2013-02-06 20:20:00,
2013-02-06 15:30:00,39.8,20.7,30.15,West,259,6.0,6.0,46,0.00,,,0.01,Wunderground v.1.13,2013-02-06 20:30:00,
2013-02-06 15:40:00,39.2,19.6,30.15,West,273,7.0,7.0,45,0.00,,,0.01,Wunderground v.1.13,2013-02-06 20:40:00,
2013-02-06 15:45:00,38.8,19.8,30.16,WNW,288,6.0,18.0,46,0.00,,,0.01,Wunderground v.1.13,2013-02-06 20:45:00,
2013-02-06 15:50:00,38.5,19.5,30.16,West,267,7.0,16.0,46,0.00,,,0.01,Wunderground v.1.13,2013-02-06 20:50:00,
2013-02-06 16:00:00,38.6,19.1,30.16,WNW,288,8.0,8.0,45,0.00,,,0.01,Wunderground v.1.13,2013-02-06 21:00:00,
2013-02-06 16:10:00,38.8,18.7,30.17,WNW,293,7.0,17.0,44,0.00,,,0.01,Wunderground v.1.13,2013-02-06 21:10:00,
2013-02-06 16:20:00,38.8,18.2,30.17,NW,307,9.0,17.0,43,0.00,,,0.01,Wunderground v.1.13,2013-02-06 21:20:00,
2013-02-06 16:25:00,38.9,17.7,30.18,WNW,295,9.0,9.0,42,0.00,,,0.01,Wunderground v.1.13,2013-02-06 21:25:00,
2013-02-06 16:35:00,38.6,18.0,30.18,West,276,8.0,8.0,43,0.00,,,0.01,Wunderground v.1.13,2013-02-06 21:35:00,
2013-02-06 16:40:00,38.5,18.4,30.18,SW,233,6.0,19.0,44,0.00,,,0.01,Wunderground v.1.13,2013-02-06 21:40:00,
2013-02-06 16:50:00,38.3,18.8,30.19,WNW,302,7.0,17.0,45,0.00,,,0.01,Wunderground v.1.13,2013-02-06 21:50:00,
2013-02-06 17:00:00,38.2,18.7,30.19,WNW,296,7.0,7.0,45,0.00,,,0.01,Wunderground v.1.13,2013-02-06 22:00:00,
2013-02-06 17:05:00,38.0,19.0,30.20,WNW,284,6.0,6.0,46,0.00,,,0.01,Wunderground v.1.13,2013-02-06 22:05:00,
2013-02-06 17:10:00,37.9,18.9,30.20,WNW,300,5.0,5.0,46,0.00,,,0.01,Wunderground v.1.13,2013-02-06 22:10:00,
2013-02-06 17:20:00,37.8,18.3,30.20,NW,320,6.0,6.0,45,0.00,,,0.01,Wunderground v.1.13,2013-02-06 22:20:00,
2013-02-06 17:30:00,37.6,17.6,30.20,WNW,301,6.0,14.0,44,0.00,,,0.01,Wunderground v.1.13,2013-02-06 22:30:00,
2013-02-06 17:35:00,37.6,18.2,30.20,West,273,6.0,13.0,45,0.00,,,0.01,Wunderground v.1.13,2013-02-06 22:35:00,
2013-02-06 17:40:00,37.3,18.4,30.21,NNW,343,6.0,6.0,46,0.00,,,0.01,Wunderground v.1.13,2013-02-06 22:40:00,
2013-02-06 17:50:00,37.2,18.8,30.22,WNW,286,5.0,14.0,47,0.00,,,0.01,Wunderground v.1.13,2013-02-06 22:50:00,
2013-02-06 17:55:00,37.0,18.1,30.22,NW,308,5.0,5.0,46,0.00,,,0.01,Wunderground v.1.13,2013-02-06 22:55:00,
2013-02-06 18:00:00,37.0,18.1,30.23,WNW,295,5.0,14.0,46,0.00,,,0.01,Wunderground v.1.13,2013-02-06 23:00:00,
2013-02-06 18:10:00,36.9,18.5,30.24,West,281,4.0,12.0,47,0.00,,,0.01,Wunderground v.1.13,2013-02-06 23:10:00,
2013-02-06 18:15:00,36.8,18.4,30.24,WNW,288,4.0,4.0,47,0.00,,,0.01,Wunderground v.1.13,2013-02-06 23:15:00,
2013-02-06 18:25:00,36.3,18.9,30.25,West,279,3.0,12.0,49,0.00,,,0.01,Wunderground v.1.13,2013-02-06 23:25:00,
2013-02-06 18:35:00,36.0,18.7,30.25,WNW,282,3.0,10.0,49,0.00,,,0.01,Wunderground v.1.13,2013-02-06 23:35:00,
2013-02-06 18:40:00,36.0,18.7,30.25,WNW,300,3.0,10.0,49,0.00,,,0.01,Wunderground v.1.13,2013-02-06 23:40:00,
2013-02-06 18:50:00,35.8,19.0,30.26,WNW,288,3.0,9.0,50,0.00,,,0.01,Wunderground v.1.13,2013-02-06 23:50:00,
2013-02-06 19:00:00,35.5,18.7,30.26,NW,304,3.0,9.0,50,0.00,,,0.01,Wunderground v.1.13,2013-02-07 00:00:00,
2013-02-06 19:05:00,35.5,18.7,30.27,West,277,3.0,7.0,50,0.00,,,0.01,Wunderground v.1.13,2013-02-07 00:05:00,
2013-02-06 19:15:00,35.2,18.9,30.27,WNW,282,3.0,7.0,51,0.00,,,0.01,Wunderground v.1.13,2013-02-07 00:15:00,
2013-02-06 19:25:00,34.9,19.0,30.27,NNW,344,3.0,6.0,52,0.00,,,0.01,Wunderground v.1.13,2013-02-07 00:25:00,
2013-02-06 19:30:00,34.7,18.4,30.27,NW,306,2.0,6.0,51,0.00,,,0.01,Wunderground v.1.13,2013-02-07 00:30:00,
2013-02-06 19:40:00,34.6,18.8,30.27,WNW,296,2.0,7.0,52,0.00,,,0.01,Wunderground v.1.13,2013-02-07 00:40:00,
2013-02-06 19:50:00,34.3,18.5,30.28,NW,308,2.0,6.0,52,0.00,,,0.00,Wunderground v.1.13,2013-02-07 00:50:00,
2013-02-06 19:55:00,34.1,18.7,30.28,NW,308,2.0,2.0,53,0.00,,,0.00,Wunderground v.1.13,2013-02-07 00:55:00,
2013-02-06 20:00:00,34.0,18.6,30.28,NW,307,2.0,2.0,53,0.00,,,0.00,Wunderground v.1.13,2013-02-07 01:00:00,
2013-02-06 20:10:00,33.4,18.5,30.29,WNW,290,1.0,6.0,54,0.00,,,0.00,Wunderground v.1.13,2013-02-07 01:10:00,
2013-02-06 20:15:00,33.4,18.5,30.29,NW,306,2.0,6.0,54,0.00,,,0.00,Wunderground v.1.13,2013-02-07 01:15:00,
2013-02-06 20:25:00,33.4,18.5,30.29,WNW,294,3.0,3.0,54,0.00,,,0.00,Wunderground v.1.13,2013-02-07 01:25:00,
2013-02-06 20:30:00,33.2,18.8,30.29,WNW,294,2.0,2.0,55,0.00,,,0.00,Wunderground v.1.13,2013-02-07 01:30:00,
2013-02-06 20:40:00,32.9,18.5,30.30,WNW,294,1.0,7.0,55,0.00,,,0.00,Wunderground v.1.13,2013-02-07 01:40:00,
2013-02-06 20:45:00,32.9,18.1,30.30,WNW,302,1.0,7.0,54,0.00,,,0.00,Wunderground v.1.13,2013-02-07 01:45:00,
2013-02-06 20:55:00,32.8,18.0,30.30,WNW,302,2.0,5.0,54,0.00,,,0.00,Wunderground v.1.13,2013-02-07 01:55:00,
2013-02-06 21:05:00,32.7,17.4,30.30,WNW,290,2.0,2.0,53,0.00,,,0.00,Wunderground v.1.13,2013-02-07 02:05:00,
2013-02-06 21:15:00,32.7,17.0,30.31,NNW,347,2.0,6.0,52,0.00,,,0.00,Wunderground v.1.13,2013-02-07 02:15:00,
2013-02-06 21:20:00,32.7,16.5,30.31,NNW,347,1.0,1.0,51,0.00,,,0.00,Wunderground v.1.13,2013-02-07 02:20:00,
2013-02-06 21:30:00,32.5,16.4,30.32,NW,317,1.0,5.0,51,0.00,,,0.00,Wunderground v.1.13,2013-02-07 02:30:00,
2013-02-06 21:35:00,32.4,16.3,30.32,NW,317,2.0,2.0,51,0.00,,,0.00,Wunderground v.1.13,2013-02-07 02:35:00,
2013-02-06 21:45:00,31.9,16.2,30.33,NW,317,0.0,5.0,52,0.00,,,0.00,Wunderground v.1.13,2013-02-07 02:45:00,
2013-02-06 21:55:00,32.1,15.5,30.33,WNW,297,3.0,4.0,50,0.00,,,0.00,Wunderground v.1.13,2013-02-07 02:55:00,
2013-02-06 22:00:00,32.1,15.5,30.34,NW,306,2.0,4.0,50,0.00,,,0.00,Wunderground v.1.13,2013-02-07 03:00:00,
2013-02-06 22:10:00,31.8,14.8,30.34,NW,307,1.0,6.0,49,0.00,,,0.00,Wunderground v.1.13,2013-02-07 03:10:00,
2013-02-06 22:20:00,31.6,14.6,30.34,West,271,3.0,4.0,49,0.00,,,0.00,Wunderground v.1.13,2013-02-07 03:20:00,
2013-02-06 22:25:00,31.6,14.6,30.34,NW,306,3.0,3.0,49,0.00,,,0.00,Wunderground v.1.13,2013-02-07 03:25:00,
2013-02-06 22:35:00,31.3,14.3,30.35,NNW,332,2.0,2.0,49,0.00,,,0.00,Wunderground v.1.13,2013-02-07 03:35:00,
2013-02-06 22:45:00,31.0,14.5,30.34,WNW,302,1.0,1.0,50,0.00,,,0.00,Wunderground v.1.13,2013-02-07 03:45:00,
2013-02-06 22:50:00,30.7,14.7,30.35,WNW,302,1.0,9.0,51,0.00,,,0.00,Wunderground v.1.13,2013-02-07 03:50:00,
2013-02-06 23:00:00,30.6,14.1,30.35,WNW,302,1.0,9.0,50,0.00,,,0.00,Wunderground v.1.13,2013-02-07 04:00:00,
2013-02-06 23:10:00,30.6,14.1,30.36,WNW,302,1.0,1.0,50,0.00,,,0.00,Wunderground v.1.13,2013-02-07 04:10:00,
2013-02-06 23:15:00,30.4,14.0,30.36,WNW,302,0.0,3.0,50,0.00,,,0.00,Wunderground v.1.13,2013-02-07 04:15:00,
2013-02-06 23:25:00,30.1,13.7,30.36,WNW,302,0.0,4.0,50,0.00,,,0.00,Wunderground v.1.13,2013-02-07 04:25:00,
2013-02-06 23:35:00,29.7,13.8,30.37,WNW,302,0.0,2.0,51,0.00,,,0.00,Wunderground v.1.13,2013-02-07 04:35:00,
2013-02-06 23:45:00,29.1,14.5,30.37,WNW,302,0.0,2.0,54,0.00,,,0.00,Wunderground v.1.13,2013-02-07 04:45:00,
2013-02-06 23:50:00,29.0,14.8,30.37,WNW,302,0.0,2.0,55,0.00,,,0.00,Wunderground v.1.13,2013-02-07 04:50:00,